»·PEaware :: ASA1091 KONT-KSEA

ASA1091 :: KONT-KSEA

FLIGHT INFORMATION

Flight Status: Arrived
Operator:
Alaska Airlines
More flights by this operator :: More flights under this callsign
Pilot: Jules P. (45166)
Aircraft: BOEING 737-900
(B739)
More flights by this aircraft type
Origin: KONT Ontario Intl
United States
Destination: KSEA Seattle-Tacoma Intl
United States
More flights between these airports :: More routes between these airports
Route: SNSHN5 EHF SHIMR LKV HAWKZ7
File this flight plan on PilotEdge
Remarks: RMK / SIMBRIEF
Altitude:
(Current/Filed)
36,000ft
Speed:
(Current/Filed)
460kts
Departed: 21-Sep-23 05:44 PM
Arrived: 21-Sep-23 07:57 PM
Distance/Time
Traveled:
831nm/2:13
Distance/Time
To Go:
Arrived

Flight Plot

Page will automatically refresh every two minutes.

Flight plan parsing failed; only flown route is shown


Map Options




Map Legend


Flown Route
Filed Route
Departure Airport
Arrival Airport
Navaid (VOR, NDB)
Fix

Horizontal Profiles

Position Reports

Time Latitude Longitude Heading Altitude Ground
Speed
21-Sep-23 17:23 34.059756 -117.590866 0 952ft 0kts
21-Sep-23 17:24 34.059756 -117.590866 0 952ft 0kts
21-Sep-23 17:25 34.059756 -117.590866 0 952ft 0kts
21-Sep-23 17:26 34.059756 -117.590866 0 952ft 0kts
21-Sep-23 17:27 34.059756 -117.590866 0 952ft 0kts
21-Sep-23 17:28 34.059756 -117.590866 0 952ft 0kts
21-Sep-23 17:29 34.059756 -117.590866 0 952ft 0kts
21-Sep-23 17:30 34.059756 -117.590866 0 952ft 0kts
21-Sep-23 17:31 34.059756 -117.590866 0 952ft 0kts
21-Sep-23 17:32 34.059756 -117.590866 0 952ft 0kts
21-Sep-23 17:33 34.059756 -117.590866 0 952ft 0kts
21-Sep-23 17:34 34.059390 -117.590895 11 952ft 2kts
21-Sep-23 17:35 34.058986 -117.591250 89 952ft 0kts
21-Sep-23 17:36 34.058986 -117.591250 89 952ft 0kts
21-Sep-23 17:37 34.058986 -117.591250 89 952ft 0kts
21-Sep-23 17:38 34.058986 -117.591250 89 952ft 0kts
21-Sep-23 17:39 34.058987 -117.589494 89 952ft 13kts
21-Sep-23 17:40 34.058994 -117.583653 89 952ft 13kts
21-Sep-23 17:41 34.057972 -117.582711 179 952ft 8kts
21-Sep-23 17:42 34.055684 -117.582706 180 952ft 8kts
21-Sep-23 17:43 34.054965 -117.594156 269 952ft 129kts
21-Sep-23 17:44 34.056024 -117.650466 271 3481ft 174kts
21-Sep-23 17:45 34.060939 -117.716719 282 5302ft 244kts
21-Sep-23 17:46 34.086427 -117.797432 304 8022ft 279kts
21-Sep-23 17:47 34.137203 -117.870676 303 10966ft 305kts
21-Sep-23 17:48 34.190299 -117.961486 302 12792ft 347kts
21-Sep-23 17:49 34.247323 -118.058707 303 14869ft 363kts
21-Sep-23 17:50 34.310121 -118.155995 310 17385ft 374kts
21-Sep-23 17:51 34.381901 -118.249580 310 19659ft 384kts
21-Sep-23 17:52 34.454378 -118.346778 309 21671ft 394kts
21-Sep-23 17:53 34.529216 -118.446317 314 23456ft 404kts
21-Sep-23 17:54 34.624607 -118.522517 327 24959ft 419kts
21-Sep-23 17:56 34.728090 -118.590857 326 26234ft 428kts
21-Sep-23 17:57 34.833761 -118.661040 325 27365ft 437kts
21-Sep-23 17:58 34.941583 -118.732396 324 28368ft 445kts
21-Sep-23 17:59 35.050986 -118.805299 324 29282ft 450kts
21-Sep-23 18:00 35.160843 -118.878786 323 30475ft 448kts
21-Sep-23 18:01 35.269862 -118.951722 323 31615ft 445kts
21-Sep-23 18:02 35.377816 -119.024517 322 32692ft 441kts
21-Sep-23 18:03 35.485970 -119.094535 328 33651ft 446kts
21-Sep-23 18:04 35.605904 -119.139643 334 34426ft 454kts
21-Sep-23 18:05 35.726690 -119.182115 333 35186ft 451kts
21-Sep-23 18:06 35.847603 -119.224769 333 35856ft 450kts
21-Sep-23 18:07 35.968297 -119.267374 333 35939ft 451kts
21-Sep-23 18:08 36.088521 -119.310066 333 35946ft 447kts
21-Sep-23 18:09 36.207122 -119.352337 333 35943ft 444kts
21-Sep-23 18:10 36.326162 -119.394902 333 35939ft 444kts
21-Sep-23 18:11 36.444979 -119.437524 333 35935ft 444kts
21-Sep-23 18:12 36.563430 -119.480150 333 35965ft 444kts
21-Sep-23 18:13 36.682020 -119.522961 333 36483ft 445kts
21-Sep-23 18:14 36.799512 -119.565511 333 37151ft 440kts
21-Sep-23 18:15 36.915963 -119.607798 333 37928ft 433kts
21-Sep-23 18:16 37.032870 -119.650432 333 37933ft 443kts
21-Sep-23 18:17 37.151143 -119.693658 333 37941ft 441kts
21-Sep-23 18:18 37.268197 -119.736622 334 37949ft 438kts
21-Sep-23 18:19 37.384964 -119.779592 334 37959ft 436kts
21-Sep-23 18:20 37.501275 -119.822519 334 37973ft 436kts
21-Sep-23 18:21 37.617208 -119.865494 334 37981ft 432kts
21-Sep-23 18:22 37.732608 -119.908382 335 37960ft 431kts
21-Sep-23 18:22 37.828524 -119.944137 335 37969ft 431kts
21-Sep-23 18:24 37.962532 -119.994133 335 37974ft 431kts
21-Sep-23 18:25 38.077735 -120.037401 335 37990ft 431kts
21-Sep-23 18:26 38.192557 -120.080739 335 37999ft 431kts
21-Sep-23 18:26 38.292456 -120.101768 347 38009ft 444kts
21-Sep-23 18:27 38.416024 -120.112725 347 38024ft 444kts
21-Sep-23 18:29 38.560083 -120.125862 347 38038ft 444kts
21-Sep-23 18:29 38.662528 -120.135195 348 38051ft 444kts
21-Sep-23 18:30 38.785552 -120.146492 348 38071ft 443kts
21-Sep-23 18:31 38.908612 -120.157844 349 38077ft 443kts
21-Sep-23 18:33 39.052824 -120.171187 349 38074ft 444kts
21-Sep-23 18:33 39.155314 -120.180691 349 38078ft 442kts
21-Sep-23 18:34 39.278132 -120.192100 349 38078ft 445kts
21-Sep-23 18:35 39.401894 -120.203698 350 38077ft 444kts
21-Sep-23 18:37 39.545101 -120.217149 350 38076ft 441kts
21-Sep-23 18:37 39.647528 -120.226776 350 38073ft 444kts
21-Sep-23 18:38 39.770996 -120.238457 350 38066ft 447kts
21-Sep-23 18:39 39.895020 -120.250223 350 38062ft 446kts
21-Sep-23 18:40 40.018556 -120.261975 350 38051ft 444kts
21-Sep-23 18:41 40.141000 -120.273666 350 38044ft 441kts
21-Sep-23 18:42 40.263579 -120.285414 350 38037ft 440kts
21-Sep-23 18:43 40.385667 -120.297179 350 38034ft 440kts
21-Sep-23 18:44 40.507614 -120.308951 350 38035ft 439kts
21-Sep-23 18:45 40.629119 -120.320720 351 38039ft 438kts
21-Sep-23 18:46 40.750677 -120.332543 351 38044ft 437kts
21-Sep-23 18:47 40.872118 -120.344401 351 38059ft 437kts
21-Sep-23 18:48 40.993226 -120.356270 352 38073ft 437kts
21-Sep-23 18:49 41.114323 -120.368182 352 38085ft 437kts
21-Sep-23 18:50 41.235558 -120.380153 352 38093ft 438kts
21-Sep-23 18:51 41.357417 -120.392227 352 38097ft 439kts
21-Sep-23 18:52 41.479338 -120.404355 353 38099ft 440kts
21-Sep-23 18:53 41.601941 -120.416597 353 38100ft 441kts
21-Sep-23 18:54 41.724544 -120.428885 353 38101ft 443kts
21-Sep-23 18:55 41.847248 -120.441231 353 38103ft 443kts
21-Sep-23 18:56 41.970203 -120.453649 353 38106ft 443kts
21-Sep-23 18:57 42.093553 -120.466157 353 38109ft 443kts
21-Sep-23 18:58 42.216383 -120.478620 353 38110ft 442kts
21-Sep-23 18:59 42.338719 -120.491134 354 38110ft 441kts
21-Sep-23 19:00 42.461286 -120.504603 350 38110ft 440kts
21-Sep-23 19:01 42.576196 -120.557166 335 38112ft 437kts
21-Sep-23 19:02 42.686852 -120.624529 336 38118ft 435kts
21-Sep-23 19:03 42.797540 -120.692117 336 38120ft 434kts
21-Sep-23 19:04 42.907679 -120.758950 336 38123ft 433kts
21-Sep-23 19:05 43.017895 -120.826446 336 38128ft 433kts
21-Sep-23 19:06 43.127327 -120.893798 336 38134ft 433kts
21-Sep-23 19:07 43.237436 -120.961849 336 38144ft 433kts
21-Sep-23 19:08 43.347114 -121.029906 337 38151ft 432kts
21-Sep-23 19:09 43.456638 -121.098141 337 38158ft 433kts
21-Sep-23 19:10 43.566277 -121.166451 337 38163ft 432kts
21-Sep-23 19:11 43.675390 -121.235134 337 38163ft 431kts
21-Sep-23 19:12 43.784510 -121.304059 337 38169ft 430kts
21-Sep-23 19:13 43.893022 -121.372849 337 38176ft 429kts
21-Sep-23 19:14 44.001483 -121.442013 337 38170ft 429kts
21-Sep-23 19:15 44.110319 -121.511559 338 38155ft 430kts
21-Sep-23 19:16 44.218840 -121.580659 338 38145ft 429kts
21-Sep-23 19:17 44.327194 -121.650287 338 38148ft 427kts
21-Sep-23 19:18 44.434233 -121.719409 338 38135ft 425kts
21-Sep-23 19:19 44.541701 -121.789104 338 38128ft 426kts
21-Sep-23 19:20 44.649358 -121.859212 338 38125ft 426kts
21-Sep-23 19:21 44.756771 -121.929454 338 38113ft 426kts
21-Sep-23 19:22 44.864226 -122.000007 338 38108ft 426kts
21-Sep-23 19:23 44.971183 -122.070531 338 38098ft 418kts
21-Sep-23 19:24 45.014239 -122.098881 338 38097ft 418kts
21-Sep-23 19:25 45.014239 -122.098881 338 38097ft 418kts
21-Sep-23 19:26 45.077461 -122.140592 338 38094ft 421kts
21-Sep-23 19:27 45.183379 -122.211180 338 37940ft 424kts
21-Sep-23 19:28 45.288847 -122.281709 338 35229ft 426kts
21-Sep-23 19:29 45.395225 -122.353124 339 32163ft 425kts
21-Sep-23 19:30 45.500209 -122.423450 339 29761ft 409kts
21-Sep-23 19:31 45.601295 -122.491791 339 27449ft 395kts
21-Sep-23 19:32 45.698954 -122.558233 339 25200ft 382kts
21-Sep-23 19:33 45.796672 -122.603718 354 23816ft 366kts
21-Sep-23 19:34 45.897901 -122.628532 354 23211ft 368kts
21-Sep-23 19:35 45.998571 -122.653580 354 22625ft 366kts
21-Sep-23 19:36 46.098959 -122.678623 354 22072ft 366kts
21-Sep-23 19:37 46.199356 -122.698249 356 20559ft 359kts
21-Sep-23 19:38 46.297705 -122.717720 356 19119ft 355kts
21-Sep-23 19:39 46.394371 -122.725883 3 17211ft 344kts
21-Sep-23 19:40 46.488596 -122.728349 2 15957ft 339kts
21-Sep-23 19:41 46.582718 -122.731634 2 14939ft 336kts
21-Sep-23 19:42 46.675862 -122.735025 1 13936ft 332kts
21-Sep-23 19:43 46.767889 -122.737498 8 12922ft 321kts
21-Sep-23 19:44 46.839141 -122.676311 43 12011ft 299kts
21-Sep-23 19:45 46.899187 -122.592830 44 11112ft 288kts
21-Sep-23 19:46 46.954359 -122.511204 47 9843ft 276kts
21-Sep-23 19:47 47.012974 -122.442190 31 8482ft 272kts
21-Sep-23 19:48 47.079502 -122.386539 31 6801ft 275kts
21-Sep-23 19:49 47.146033 -122.337351 18 5953ft 253kts
21-Sep-23 19:50 47.208049 -122.312690 4 5350ft 217kts
21-Sep-23 19:51 47.267008 -122.312657 1 4051ft 203kts
21-Sep-23 19:52 47.320464 -122.312244 0 2920ft 180kts
21-Sep-23 19:53 47.366232 -122.311845 0 1968ft 154kts
21-Sep-23 19:54 47.408514 -122.311477 0 1075ft 149kts
21-Sep-23 19:55 47.449367 -122.310987 355 441ft 131kts
21-Sep-23 19:56 47.460124 -122.310349 87 441ft 5kts
21-Sep-23 19:57 47.459997 -122.306491 135 441ft 12kts
21-Sep-23 19:58 47.453930 -122.306234 182 441ft 17kts
21-Sep-23 19:59 47.450134 -122.305453 91 441ft 8kts
21-Sep-23 20:00 47.449919 -122.302337 90 441ft 7kts
21-Sep-23 20:01 47.447437 -122.300041 217 441ft 11kts
21-Sep-23 20:02 47.447744 -122.300988 305 441ft 2kts
21-Sep-23 20:03 47.447779 -122.301061 305 441ft 0kts
21-Sep-23 20:04 47.447779 -122.301061 305 441ft 0kts

Navigation Log

Ident Type
Flight plan parsing failed, navigation log unavailable